Time;durP1;ratioP1;P1;durP2;ratioP2;P2;SDS_P1;SDS_P2;PMS_P1;PMS_P2;Temp;Humidity;BMP_temperature;BMP_pressure;BME280_temperature;BME280_humidity;BME280_pressure;Samples;Min_cycle;Max_cycle;Signal;HPM_P1;HPM_P2
2022/12/20 00:00:55;;;;;;;18.10;9.90;;;;;;;1.13;93.53;102167.13;5055374;28;20037;-68
2022/12/20 00:03:21;;;;;;;19.40;10.25;;;;;;;1.16;93.27;102173.09;5055672;28;20819;-70
2022/12/20 00:05:47;;;;;;;21.17;10.68;;;;;;;0.94;94.32;102172.81;5050752;28;20021;-63
2022/12/20 00:08:13;;;;;;;17.75;9.93;;;;;;;0.82;94.54;102173.13;5057522;28;20100;-66
2022/12/20 00:10:42;;;;;;;18.90;9.73;;;;;;;0.85;93.77;102177.41;5056179;28;20086;-70
2022/12/20 00:13:08;;;;;;;21.15;10.88;;;;;;;0.65;94.23;102177.94;5055638;28;20036;-64
2022/12/20 00:15:33;;;;;;;19.20;9.00;;;;;;;1.04;94.00;102177.78;5054299;28;20029;-71
2022/12/20 00:17:59;;;;;;;20.52;9.70;;;;;;;1.28;92.96;102167.53;5055437;28;20393;-64
2022/12/20 00:20:26;;;;;;;19.38;9.38;;;;;;;1.42;91.50;102171.50;5055141;28;20032;-71
2022/12/20 00:22:52;;;;;;;19.42;11.02;;;;;;;1.50;89.98;102167.78;5054558;28;20044;-71
2022/12/20 00:25:19;;;;;;;18.10;9.05;;;;;;;1.27;91.13;102181.50;5055209;28;20103;-64
2022/12/20 00:27:45;;;;;;;17.73;8.75;;;;;;;1.06;91.32;102174.25;5056435;28;20039;-70
2022/12/20 00:30:11;;;;;;;18.40;9.18;;;;;;;0.81;90.82;102173.19;5055956;28;20045;-64
2022/12/20 00:32:36;;;;;;;19.08;8.68;;;;;;;0.57;92.19;102174.66;5055475;28;20040;-70
2022/12/20 00:35:02;;;;;;;19.45;9.80;;;;;;;0.46;93.24;102177.56;5053348;28;20039;-70
2022/12/20 00:37:28;;;;;;;19.15;8.73;;;;;;;0.58;92.69;102176.38;5050945;28;20307;-70
2022/12/20 00:39:53;;;;;;;17.67;8.93;;;;;;;0.77;92.62;102174.16;5057042;28;20078;-64
2022/12/20 00:42:18;;;;;;;19.45;8.95;;;;;;;0.85;92.82;102175.66;5056426;28;20610;-64
2022/12/20 00:44:44;;;;;;;19.42;10.20;;;;;;;0.67;92.75;102175.28;5057166;28;20025;-70
2022/12/20 00:47:09;;;;;;;18.63;9.73;;;;;;;0.35;93.52;102173.50;5055271;28;20214;-70
2022/12/20 00:49:35;;;;;;;16.80;9.30;;;;;;;0.58;93.42;102168.56;5056629;28;20088;-71
2022/12/20 00:52:00;;;;;;;22.80;10.55;;;;;;;0.73;93.70;102162.94;5054733;28;20319;-70
2022/12/20 00:54:25;;;;;;;21.95;9.55;;;;;;;0.71;93.41;102167.34;5053264;28;20032;-71
2022/12/20 00:56:51;;;;;;;21.10;9.23;;;;;;;0.52;94.01;102164.38;5055148;28;20108;-70
2022/12/20 00:59:16;;;;;;;20.08;8.90;;;;;;;0.31;93.06;102167.50;5055349;28;20228;-70
2022/12/20 01:01:42;;;;;;;21.20;8.60;;;;;;;0.47;92.51;102163.63;5056280;28;20100;-70
2022/12/20 01:04:07;;;;;;;20.95;9.88;;;;;;;0.32;91.46;102164.00;5052914;28;20088;-65
2022/12/20 01:06:33;;;;;;;20.52;9.20;;;;;;;0.28;91.96;102154.56;5050276;28;20322;-64
2022/12/20 01:08:58;;;;;;;18.90;9.05;;;;;;;0.27;91.88;102151.09;5054578;28;20017;-70
2022/12/20 01:11:29;;;;;;;21.63;9.43;;;;;;;0.24;91.63;102161.59;5055652;28;20049;-64
2022/12/20 01:13:57;;;;;;;22.33;10.10;;;;;;;0.37;92.49;102148.25;5054147;28;20387;-70
2022/12/20 01:16:34;;;;;;;20.60;9.80;;;;;;;0.22;93.40;102142.53;5055451;28;20033;-64
2022/12/20 01:19:01;;;;;;;19.73;9.77;;;;;;;0.41;93.05;102135.09;5053040;28;20053;-71
2022/12/20 01:21:27;;;;;;;22.02;9.18;;;;;;;0.48;92.17;102130.59;5055472;28;20251;-64
2022/12/20 01:23:53;;;;;;;15.90;8.75;;;;;;;0.51;91.70;102127.91;5053121;28;20037;-70
2022/12/20 01:26:22;;;;;;;17.50;7.85;;;;;;;0.49;91.04;102127.94;5056007;28;20100;-70
2022/12/20 01:28:50;;;;;;;20.35;8.45;;;;;;;0.49;91.02;102121.88;5054160;28;20335;-64
2022/12/20 01:31:17;;;;;;;19.40;8.13;;;;;;;0.49;90.67;102108.84;5055423;28;20024;-63
2022/12/20 01:33:44;;;;;;;26.85;9.23;;;;;;;0.43;90.74;102109.00;5055554;28;20053;-64
2022/12/20 01:36:15;;;;;;;15.80;7.85;;;;;;;0.45;89.80;102110.69;5048420;28;20032;-64
2022/12/20 01:38:41;;;;;;;19.08;8.23;;;;;;;0.52;90.27;102103.56;5055418;28;20025;-70
2022/12/20 01:41:06;;;;;;;18.20;8.82;;;;;;;0.56;89.88;102095.59;5053609;28;20025;-65
2022/12/20 01:44:00;;;;;;;17.83;8.40;;;;;;;0.53;88.93;102089.63;5055573;28;20036;-64
2022/12/20 01:46:28;;;;;;;17.15;8.25;;;;;;;0.57;88.57;102093.84;5051043;28;20033;-70
2022/12/20 01:49:18;;;;;;;20.73;8.30;;;;;;;0.62;87.94;102094.59;5055398;28;20358;-70
2022/12/20 01:51:49;;;;;;;16.75;8.57;;;;;;;0.94;87.82;102099.78;5053858;28;20047;-70
2022/12/20 01:54:18;;;;;;;15.93;8.25;;;;;;;1.20;87.28;102092.97;5054332;28;20286;-64
2022/12/20 01:56:49;;;;;;;22.02;8.70;;;;;;;1.50;86.07;102093.81;5054737;28;20369;-64
2022/12/20 01:59:15;;;;;;;18.52;9.48;;;;;;;1.73;83.54;102086.13;5054477;28;20029;-71
2022/12/20 02:01:42;;;;;;;20.95;9.95;;;;;;;1.97;83.04;102091.47;5054216;28;20059;-62
2022/12/20 02:04:08;;;;;;;18.80;10.57;;;;;;;2.07;81.84;102085.03;5054918;28;20024;-65
2022/12/20 02:06:34;;;;;;;16.48;9.05;;;;;;;2.14;82.13;102086.56;5050546;28;20037;-64
2022/12/20 02:09:01;;;;;;;41.83;17.67;;;;;;;2.24;81.04;102086.19;5055214;28;20028;-69
2022/12/20 02:11:45;;;;;;;26.17;10.70;;;;;;;2.19;80.44;102084.66;5054175;28;20807;-65
2022/12/20 02:14:49;;;;;;;35.28;14.80;;;;;;;2.32;80.89;102072.00;5054105;28;20266;-65
2022/12/20 02:17:27;;;;;;;27.50;12.55;;;;;;;2.46;79.74;102078.47;5009958;28;20053;-70
2022/12/20 02:20:07;;;;;;;20.27;9.63;;;;;;;2.13;78.56;102072.63;5053419;28;20022;-71
2022/12/20 02:22:46;;;;;;;19.77;10.30;;;;;;;2.32;78.56;102075.47;5053189;28;20036;-61
2022/12/20 02:25:33;;;;;;;17.77;9.40;;;;;;;2.38;78.49;102067.41;5054367;28;20315;-62
2022/12/20 02:28:21;;;;;;;16.77;8.57;;;;;;;2.50;77.64;102074.00;5053676;28;20032;-68
2022/12/20 02:30:51;;;;;;;31.80;15.07;;;;;;;2.53;77.35;102077.34;5042601;28;20036;-72
2022/12/20 02:33:20;;;;;;;29.10;14.90;;;;;;;2.50;78.01;102074.84;5058651;28;20051;-71
2022/12/20 02:35:45;;;;;;;21.27;9.93;;;;;;;2.59;77.43;102060.59;5058162;28;20017;-64
2022/12/20 02:38:30;;;;;;;18.95;8.57;;;;;;;2.58;78.37;102071.09;5059976;28;20323;-64
2022/12/20 02:41:10;;;;;;;18.30;9.05;;;;;;;2.59;76.52;102067.56;5064589;28;20025;-65
2022/12/20 02:46:26;;;;;;;74.30;28.55;;;;;;;2.52;77.26;102067.78;5064799;28;20028;-72
2022/12/20 02:48:56;;;;;;;24.38;10.75;;;;;;;2.64;76.73;102068.28;5063973;28;20101;-72
2022/12/20 02:51:25;;;;;;;51.70;19.75;;;;;;;2.55;76.43;102061.59;5063668;28;20271;-70
2022/12/20 02:53:51;;;;;;;29.17;12.23;;;;;;;2.48;76.89;102060.13;5063859;28;20074;-70
2022/12/20 02:56:30;;;;;;;18.13;10.70;;;;;;;2.57;76.82;102054.56;5063785;28;20061;-65
2022/12/20 02:59:20;;;;;;;21.55;12.90;;;;;;;2.60;76.65;102066.66;5063964;28;20029;-64
2022/12/20 03:01:53;;;;;;;29.13;16.58;;;;;;;2.45;77.26;102070.69;5063874;28;20043;-65
2022/12/20 03:04:22;;;;;;;29.63;15.27;;;;;;;2.44;77.98;102063.75;5062813;28;20092;-70
2022/12/20 03:07:06;;;;;;;24.20;12.05;;;;;;;2.50;77.58;102059.16;5064245;28;20044;-65
2022/12/20 03:09:35;;;;;;;29.92;14.00;;;;;;;2.45;77.75;102070.69;5063035;28;20370;-69
2022/12/20 03:12:02;;;;;;;43.13;16.10;;;;;;;2.44;78.06;102066.34;5064117;28;20083;-72
2022/12/20 03:14:27;;;;;;;35.40;17.92;;;;;;;2.32;77.94;102059.78;5063451;28;20041;-71
2022/12/20 03:16:53;;;;;;;38.20;17.85;;;;;;;2.31;78.17;102055.47;5063931;28;20100;-64
2022/12/20 03:19:18;;;;;;;41.88;19.70;;;;;;;2.36;78.26;102055.31;5063548;28;20037;-65
2022/12/20 03:21:44;;;;;;;34.92;16.08;;;;;;;2.28;78.78;102052.97;5064108;28;20214;-70
2022/12/20 03:24:10;;;;;;;30.33;14.23;;;;;;;2.18;79.36;102055.03;5063276;28;20044;-72
2022/12/20 03:26:36;;;;;;;28.00;13.27;;;;;;;2.26;79.20;102044.31;5063976;28;20020;-66
2022/12/20 03:29:02;;;;;;;28.83;13.52;;;;;;;2.42;78.61;102048.09;5063149;28;20078;-70
2022/12/20 03:31:27;;;;;;;26.00;13.52;;;;;;;2.54;78.28;102052.91;5060072;28;20035;-70
2022/12/20 03:33:53;;;;;;;29.15;13.90;;;;;;;2.59;77.43;102057.13;5057032;28;20393;-70
2022/12/20 03:36:22;;;;;;;27.75;13.57;;;;;;;2.62;77.75;102062.25;5056461;28;20094;-63
2022/12/20 03:38:52;;;;;;;26.67;12.93;;;;;;;2.59;76.56;102060.59;5052983;28;20350;-70
2022/12/20 03:41:18;;;;;;;27.88;12.43;;;;;;;2.65;77.14;102065.59;5055957;28;20063;-68
2022/12/20 03:43:44;;;;;;;29.13;14.63;;;;;;;2.71;76.84;102068.00;5057792;28;20033;-62
2022/12/20 03:46:09;;;;;;;24.67;10.95;;;;;;;2.74;76.39;102069.66;5055502;28;20032;-62
2022/12/20 03:48:35;;;;;;;31.38;12.00;;;;;;;2.69;76.58;102071.56;5055887;28;20040;-64
2022/12/20 03:51:00;;;;;;;25.38;11.50;;;;;;;2.44;77.30;102075.06;5058863;28;20058;-65
2022/12/20 03:53:26;;;;;;;24.45;11.93;;;;;;;2.49;77.82;102067.91;5055532;28;20415;-65
2022/12/20 03:55:51;;;;;;;24.23;11.13;;;;;;;2.58;77.71;102074.56;5055937;28;20074;-64
2022/12/20 03:58:17;;;;;;;25.38;12.25;;;;;;;2.48;77.75;102063.59;5057253;28;20113;-64
2022/12/20 04:00:42;;;;;;;29.88;14.10;;;;;;;2.55;77.27;102064.22;5057667;28;20101;-71
2022/12/20 04:03:08;;;;;;;23.17;12.85;;;;;;;2.54;76.73;102065.13;5055520;28;20275;-71
2022/12/20 04:05:33;;;;;;;24.98;13.73;;;;;;;2.57;77.40;102065.00;5060605;28;20041;-65
2022/12/20 04:07:59;;;;;;;25.70;12.98;;;;;;;2.60;76.74;102064.06;5051887;28;20049;-70
2022/12/20 04:10:24;;;;;;;30.83;15.10;;;;;;;2.61;76.76;102066.63;5058323;28;20029;-70
2022/12/20 04:12:50;;;;;;;44.78;22.08;;;;;;;2.55;77.01;102072.06;5055291;28;20196;-65
2022/12/20 04:15:16;;;;;;;38.90;19.77;;;;;;;2.49;77.54;102069.66;5058053;28;20376;-70
2022/12/20 04:17:41;;;;;;;37.53;18.30;;;;;;;2.44;77.91;102063.75;5056115;28;20033;-65
2022/12/20 04:20:18;;;;;;;32.88;16.63;;;;;;;2.50;77.42;102076.59;5057317;28;20033;-64
2022/12/20 04:22:50;;;;;;;33.33;16.70;;;;;;;2.55;77.72;102074.69;5057405;28;20041;-64
2022/12/20 04:25:19;;;;;;;33.78;15.18;;;;;;;2.60;77.52;102071.91;5056259;28;20060;-65
2022/12/20 04:27:45;;;;;;;33.78;15.88;;;;;;;2.63;77.56;102064.81;5055147;28;20032;-66
2022/12/20 04:30:12;;;;;;;33.70;18.45;;;;;;;2.69;77.31;102067.19;5056293;28;20044;-64
2022/12/20 04:32:37;;;;;;;38.47;18.27;;;;;;;2.69;77.06;102061.09;5057395;28;20052;-64
2022/12/20 04:35:04;;;;;;;35.53;16.42;;;;;;;2.59;77.70;102057.97;5054865;28;20082;-64
2022/12/20 04:37:30;;;;;;;32.47;16.63;;;;;;;2.71;77.51;102061.91;5054593;28;20035;-64
2022/12/20 04:39:57;;;;;;;31.85;15.40;;;;;;;2.62;77.85;102059.63;5054485;28;20028;-70
2022/12/20 04:42:23;;;;;;;36.00;16.95;;;;;;;2.58;77.85;102066.72;5057277;28;20072;-70
2022/12/20 04:44:49;;;;;;;36.63;16.33;;;;;;;2.58;77.82;102065.88;5054629;28;20028;-70
2022/12/20 04:47:14;;;;;;;27.92;15.50;;;;;;;2.67;78.04;102065.53;5056302;28;20037;-64
2022/12/20 04:49:40;;;;;;;31.30;15.20;;;;;;;2.74;77.65;102070.50;5055622;28;20037;-64
2022/12/20 04:54:50;;;;;;;33.78;17.30;;;;;;;2.74;77.12;102070.50;5054615;28;20108;-68
2022/12/20 04:57:15;;;;;;;35.38;18.30;;;;;;;2.79;77.06;102067.72;5055753;28;20036;-68
2022/12/20 04:59:41;;;;;;;39.33;20.27;;;;;;;2.81;77.04;102060.66;5056419;28;20327;-63
2022/12/20 05:02:06;;;;;;;72.18;33.17;;;;;;;2.84;77.08;102065.78;5054391;28;20405;-63
2022/12/20 05:04:32;;;;;;;66.13;29.60;;;;;;;2.84;76.07;102063.16;5056529;28;20037;-67
2022/12/20 05:06:57;;;;;;;63.17;29.83;;;;;;;2.81;76.25;102065.91;5054195;28;20438;-70
2022/12/20 05:09:23;;;;;;;53.97;27.35;;;;;;;2.75;76.79;102064.34;5051891;28;20226;-71
2022/12/20 05:11:48;;;;;;;47.25;25.85;;;;;;;2.79;76.66;102058.09;5056511;28;20021;-64
2022/12/20 05:14:14;;;;;;;33.55;20.90;;;;;;;2.82;76.38;102051.91;5038440;28;20021;-70
2022/12/20 05:16:39;;;;;;;46.60;22.38;;;;;;;2.82;75.53;102057.13;5055677;28;20045;-64
2022/12/20 05:19:05;;;;;;;47.72;25.33;;;;;;;2.79;75.51;102052.03;5056092;28;20021;-65
2022/12/20 05:26:59;;;;;;;100.68;39.63;;;;;;;2.62;76.29;102052.63;5054716;28;20036;-68
2022/12/20 05:29:24;;;;;;;90.30;40.20;;;;;;;2.63;76.42;102051.72;5060526;28;20021;-70
2022/12/20 05:31:50;;;;;;;80.72;34.35;;;;;;;2.69;75.72;102051.50;5061007;28;20045;-64
2022/12/20 05:34:16;;;;;;;47.85;22.70;;;;;;;2.67;75.25;102040.25;5060730;28;20029;-64
2022/12/20 05:36:41;;;;;;;43.03;21.90;;;;;;;2.63;75.53;102043.03;5060747;28;20135;-64
2022/12/20 05:39:07;;;;;;;41.88;20.38;;;;;;;2.68;75.45;102044.56;5061533;28;20048;-70
2022/12/20 05:41:32;;;;;;;39.88;21.25;;;;;;;2.73;75.13;102047.88;5060622;28;20075;-70
2022/12/20 05:43:58;;;;;;;48.85;24.40;;;;;;;2.67;75.40;102045.47;5060958;28;20049;-65
2022/12/20 05:46:23;;;;;;;44.83;24.85;;;;;;;2.68;75.54;102051.56;5061480;28;20024;-69
2022/12/20 05:48:48;;;;;;;49.80;27.05;;;;;;;2.63;75.98;102041.25;5060293;28;20070;-69
2022/12/20 05:51:14;;;;;;;60.17;32.85;;;;;;;2.70;75.74;102034.91;5060843;28;20074;-61
2022/12/20 05:53:39;;;;;;;48.88;28.70;;;;;;;2.75;75.39;102048.66;5060690;28;20033;-70
2022/12/20 05:56:05;;;;;;;55.22;27.98;;;;;;;2.76;75.03;102049.50;5060743;28;20044;-68
2022/12/20 05:58:31;;;;;;;60.70;35.97;;;;;;;2.48;75.65;102040.03;5060534;28;20093;-65
2022/12/20 06:00:59;;;;;;;126.03;54.60;;;;;;;2.18;77.14;102034.13;5060684;28;20025;-71
2022/12/20 06:03:25;;;;;;;133.05;64.13;;;;;;;2.12;78.42;102036.09;5060262;28;20033;-64
2022/12/20 06:05:50;;;;;;;113.53;61.47;;;;;;;2.30;77.88;102039.84;5060222;28;20033;-64
2022/12/20 06:08:16;;;;;;;185.90;99.07;;;;;;;2.37;77.84;102041.34;5061025;28;20219;-64
2022/12/20 06:10:41;;;;;;;193.05;114.63;;;;;;;2.44;76.89;102040.22;5060323;28;20029;-64
2022/12/20 06:13:11;;;;;;;102.55;55.80;;;;;;;2.22;76.75;102038.34;5060487;28;20025;-64
2022/12/20 06:15:37;;;;;;;93.85;45.47;;;;;;;2.11;77.85;102037.00;5060990;28;20040;-65
2022/12/20 06:18:03;;;;;;;100.18;59.55;;;;;;;2.16;78.04;102040.31;5060556;28;20033;-70
2022/12/20 06:20:28;;;;;;;97.75;57.10;;;;;;;2.28;77.99;102045.13;5060895;28;20323;-72
2022/12/20 06:22:54;;;;;;;91.57;52.72;;;;;;;2.22;78.41;102037.50;5060421;28;20100;-71
2022/12/20 06:25:19;;;;;;;89.95;50.65;;;;;;;2.36;78.08;102042.25;5060129;28;20041;-65
2022/12/20 06:27:45;;;;;;;87.93;46.47;;;;;;;2.48;77.39;102041.81;5060006;28;20230;-70
2022/12/20 06:30:11;;;;;;;90.38;44.95;;;;;;;2.37;78.04;102041.34;5060750;28;20029;-64
2022/12/20 06:32:38;;;;;;;71.82;35.22;;;;;;;2.32;78.53;102032.78;5060813;28;20323;-64
2022/12/20 06:35:04;;;;;;;49.15;26.90;;;;;;;2.27;78.88;102035.56;5059179;28;20028;-69
2022/12/20 06:37:30;;;;;;;41.92;22.38;;;;;;;2.39;78.55;102039.50;5060339;28;20108;-68
2022/12/20 06:39:57;;;;;;;42.20;22.75;;;;;;;2.56;77.62;102043.25;5060968;28;20104;-62
2022/12/20 06:42:23;;;;;;;47.75;24.02;;;;;;;2.58;78.11;102043.19;5060415;28;20025;-68
2022/12/20 06:44:48;;;;;;;41.03;20.73;;;;;;;2.66;78.10;102037.69;5060141;28;20374;-62
2022/12/20 06:47:14;;;;;;;54.08;24.38;;;;;;;2.71;77.61;102038.38;5060579;28;20066;-61
2022/12/20 06:49:40;;;;;;;67.93;26.33;;;;;;;2.84;76.68;102045.72;5059940;28;20082;-69
2022/12/20 06:52:05;;;;;;;35.63;18.08;;;;;;;2.96;76.21;102043.53;5060574;28;20092;-68
2022/12/20 06:54:30;;;;;;;29.60;16.45;;;;;;;3.05;75.61;102041.44;5060178;28;20052;-62
2022/12/20 06:56:56;;;;;;;27.92;14.38;;;;;;;2.97;76.03;102043.47;5070372;28;20040;-69
2022/12/20 06:59:22;;;;;;;25.20;12.07;;;;;;;2.76;77.07;102037.28;5061553;28;20020;-68
2022/12/20 07:01:47;;;;;;;20.25;11.32;;;;;;;2.79;76.53;102031.94;5060069;28;20082;-68
2022/12/20 07:04:13;;;;;;;28.52;13.60;;;;;;;2.93;76.45;102038.44;5059461;28;20143;-62
2022/12/20 07:06:38;;;;;;;38.55;18.08;;;;;;;3.03;77.09;102034.56;5058856;28;20099;-68
2022/12/20 07:09:04;;;;;;;29.33;14.95;;;;;;;3.13;77.15;102034.19;5060955;28;20071;-72
2022/12/20 07:11:29;;;;;;;29.80;13.85;;;;;;;3.28;76.54;102045.81;5060334;28;20033;-71
2022/12/20 07:13:56;;;;;;;26.83;13.48;;;;;;;3.42;75.42;102048.75;5059939;28;20041;-70
2022/12/20 07:16:22;;;;;;;33.45;16.05;;;;;;;3.56;74.60;102032.50;5062154;28;20168;-69
2022/12/20 07:18:54;;;;;;;30.38;15.15;;;;;;;3.71;73.64;102039.72;5062126;28;20039;-65
2022/12/20 07:21:20;;;;;;;31.10;15.57;;;;;;;3.83;73.13;102034.00;5063669;28;20100;-64
2022/12/20 07:23:46;;;;;;;31.85;16.52;;;;;;;4.00;72.73;102035.06;5063760;28;20067;-70
2022/12/20 07:26:13;;;;;;;30.20;17.30;;;;;;;4.07;72.26;102039.97;5064011;28;20045;-63
2022/12/20 07:28:39;;;;;;;29.98;16.83;;;;;;;4.11;72.75;102035.47;5063205;28;20032;-63
2022/12/20 07:31:05;;;;;;;33.75;18.48;;;;;;;4.09;73.00;102018.94;5062081;28;20047;-64
2022/12/20 07:33:31;;;;;;;34.50;18.35;;;;;;;4.04;73.02;102013.91;5063694;28;20037;-61
2022/12/20 07:36:05;;;;;;;28.63;15.25;;;;;;;3.73;73.04;102011.69;5063413;28;20088;-67
2022/12/20 07:38:31;;;;;;;29.70;15.27;;;;;;;3.60;73.40;102004.41;5063194;28;20020;-67
2022/12/20 07:40:56;;;;;;;26.92;15.00;;;;;;;3.90;73.79;102004.91;5064199;28;20295;-61
2022/12/20 07:43:22;;;;;;;39.53;16.48;;;;;;;4.07;74.08;102007.66;5063288;28;20260;-71
2022/12/20 07:45:47;;;;;;;26.65;13.27;;;;;;;4.07;72.86;102010.28;5064031;28;20041;-64
2022/12/20 07:48:13;;;;;;;28.52;15.20;;;;;;;3.99;72.77;102004.50;5062569;28;20025;-63
2022/12/20 07:50:40;;;;;;;42.50;19.48;;;;;;;3.96;73.38;102009.88;5063859;28;20097;-64
2022/12/20 07:53:07;;;;;;;42.35;18.38;;;;;;;3.94;73.50;102009.94;5063884;28;20048;-64
2022/12/20 07:55:32;;;;;;;42.95;20.20;;;;;;;4.10;73.67;102015.41;5063470;28;20037;-70
2022/12/20 07:58:03;;;;;;;54.13;24.58;;;;;;;4.19;73.57;102011.56;5063940;28;20090;-64
2022/12/20 08:00:30;;;;;;;42.92;17.90;;;;;;;4.27;72.61;102004.22;5063056;28;20036;-64
2022/12/20 08:03:09;;;;;;;37.40;18.65;;;;;;;4.45;72.13;101999.00;5062870;28;20029;-70
2022/12/20 08:05:39;;;;;;;32.33;17.73;;;;;;;4.22;71.11;101999.19;5062850;28;20219;-70
2022/12/20 08:08:07;;;;;;;28.95;16.25;;;;;;;4.47;70.80;101997.19;5062748;28;20226;-70
2022/12/20 08:10:32;;;;;;;28.13;15.07;;;;;;;4.45;70.15;101993.78;5062732;28;20099;-64
2022/12/20 08:12:58;;;;;;;32.60;16.23;;;;;;;4.45;69.87;101988.53;5072999;28;20059;-64
2022/12/20 08:15:24;;;;;;;26.33;13.70;;;;;;;4.38;68.85;101991.50;5065072;28;20128;-65
2022/12/20 08:17:50;;;;;;;31.33;15.27;;;;;;;4.35;69.04;101987.22;5062652;28;20033;-70
2022/12/20 08:20:16;;;;;;;25.10;13.00;;;;;;;4.59;68.53;101987.91;5062596;28;20035;-64
2022/12/20 08:22:41;;;;;;;23.48;11.50;;;;;;;4.51;67.22;101989.16;5062920;28;20043;-64
2022/12/20 08:25:07;;;;;;;22.83;12.45;;;;;;;4.44;67.12;101975.47;5062589;28;20025;-70
2022/12/20 08:27:33;;;;;;;21.13;11.23;;;;;;;4.58;67.27;101980.09;5061923;28;20025;-70
2022/12/20 08:29:59;;;;;;;22.45;12.60;;;;;;;4.50;68.41;101977.81;5062704;28;20025;-70
2022/12/20 08:32:24;;;;;;;23.00;13.27;;;;;;;4.58;68.23;101980.97;5063006;28;20024;-65
2022/12/20 08:34:51;;;;;;;20.85;13.65;;;;;;;4.44;67.05;101975.47;5061784;28;20307;-64
2022/12/20 08:37:18;;;;;;;25.33;12.98;;;;;;;4.66;67.81;101976.22;5062342;28;20028;-64
2022/12/20 08:39:44;;;;;;;33.83;16.90;;;;;;;4.56;67.77;101967.06;5062504;28;20048;-71
2022/12/20 08:42:10;;;;;;;25.45;15.93;;;;;;;4.62;68.55;101961.53;5062084;28;20048;-69
2022/12/20 08:44:36;;;;;;;29.63;13.73;;;;;;;4.69;67.53;101964.72;5060971;28;20028;-64
2022/12/20 08:47:02;;;;;;;22.42;11.80;;;;;;;4.72;67.42;101954.09;5055472;28;20032;-71
2022/12/20 08:49:27;;;;;;;24.75;14.00;;;;;;;4.46;67.22;101953.50;5054617;28;20021;-64
2022/12/20 08:51:53;;;;;;;27.27;13.23;;;;;;;4.49;66.75;101957.75;5056202;28;20049;-70
2022/12/20 08:54:18;;;;;;;26.35;12.85;;;;;;;4.32;67.67;101953.28;5055314;28;20021;-63
2022/12/20 08:56:44;;;;;;;21.65;12.60;;;;;;;4.58;68.16;101961.75;5055172;28;20047;-63
2022/12/20 08:59:09;;;;;;;19.10;9.90;;;;;;;4.78;67.70;101944.16;5054049;28;20024;-70
2022/12/20 09:01:34;;;;;;;21.10;11.75;;;;;;;4.91;67.98;101938.31;5057233;28;20041;-64
2022/12/20 09:04:00;;;;;;;21.48;11.25;;;;;;;4.71;67.13;101936.63;5053916;28;20021;-70
2022/12/20 09:06:26;;;;;;;16.48;10.73;;;;;;;4.73;67.76;101935.63;5057234;28;20303;-64
2022/12/20 09:08:51;;;;;;;21.45;13.43;;;;;;;5.05;67.61;101928.88;5055397;28;20047;-64
2022/12/20 09:11:22;;;;;;;20.35;11.80;;;;;;;5.04;68.03;101918.44;5056881;28;20025;-64
2022/12/20 09:13:51;;;;;;;18.77;11.00;;;;;;;4.83;68.24;101917.69;5055949;28;20086;-63
2022/12/20 09:16:19;;;;;;;19.42;9.68;;;;;;;4.74;67.74;101913.72;5053859;28;20362;-70
2022/12/20 09:18:51;;;;;;;23.80;13.13;;;;;;;4.92;68.50;101906.75;5055990;28;20032;-70
2022/12/20 09:21:18;;;;;;;17.67;11.60;;;;;;;4.89;68.94;101906.91;5055775;28;20025;-70
2022/12/20 09:23:44;;;;;;;22.80;11.50;;;;;;;4.73;69.34;101898.03;5054679;28;20033;-70
2022/12/20 09:26:14;;;;;;;41.78;16.25;;;;;;;4.75;68.54;101896.19;5055470;28;20033;-71
2022/12/20 09:28:42;;;;;;;32.53;13.13;;;;;;;4.81;69.00;101893.28;5053692;28;20212;-71
2022/12/20 09:31:11;;;;;;;27.05;12.32;;;;;;;4.82;70.05;101882.72;5053247;28;20037;-70
2022/12/20 09:33:37;;;;;;;22.45;11.45;;;;;;;4.86;68.90;101890.44;5055897;28;20187;-70
2022/12/20 09:36:03;;;;;;;17.42;10.43;;;;;;;4.96;69.70;101883.81;5056231;28;20144;-70
2022/12/20 09:38:31;;;;;;;22.08;11.85;;;;;;;4.95;69.06;101876.88;5052655;28;20117;-70
2022/12/20 09:41:02;;;;;;;18.35;9.68;;;;;;;4.90;69.17;101871.84;5055961;28;20192;-72
2022/12/20 09:43:27;;;;;;;19.83;10.93;;;;;;;5.19;69.07;101870.44;5053512;28;20056;-70
2022/12/20 09:45:56;;;;;;;21.77;12.27;;;;;;;5.22;68.07;101869.47;5055881;28;20039;-70
2022/12/20 09:48:30;;;;;;;19.38;9.48;;;;;;;5.30;68.30;101862.03;5052609;28;20166;-64
2022/12/20 09:51:39;;;;;;;19.50;11.70;;;;;;;5.28;68.07;101859.50;5055089;28;20035;-71
2022/12/20 09:54:40;;;;;;;14.05;9.35;;;;;;;5.23;67.91;101848.38;5055084;28;20251;-69
2022/12/20 09:57:11;;;;;;;17.35;9.35;;;;;;;5.36;68.47;101840.72;5054726;28;20104;-68
2022/12/20 09:59:40;;;;;;;18.00;10.10;;;;;;;5.32;69.06;101832.16;5051061;28;20037;-68
2022/12/20 10:02:18;;;;;;;16.17;9.00;;;;;;;5.41;68.33;101838.72;5055053;28;20043;-62
2022/12/20 10:04:44;;;;;;;20.02;10.05;;;;;;;5.50;68.59;101834.75;5055371;28;20216;-62
2022/12/20 10:07:31;;;;;;;18.88;8.68;;;;;;;5.49;67.09;101833.91;5053087;28;20040;-69
2022/12/20 10:10:06;;;;;;;17.83;10.02;;;;;;;5.53;67.92;101824.09;5052668;28;20104;-62
2022/12/20 10:12:59;;;;;;;16.23;9.05;;;;;;;5.57;67.54;101826.47;5053912;28;20100;-68
2022/12/20 10:15:36;;;;;;;18.92;9.88;;;;;;;5.51;66.46;101820.69;5054237;28;20044;-68
2022/12/20 10:18:18;;;;;;;17.23;9.48;;;;;;;5.55;67.18;101814.34;5053937;28;20043;-68
2022/12/20 10:21:10;;;;;;;15.02;8.55;;;;;;;5.56;67.36;101810.81;5055267;28;20036;-68
2022/12/20 10:24:09;;;;;;;15.43;9.73;;;;;;;5.55;66.06;101804.69;5055003;28;20033;-63
2022/12/20 10:26:34;;;;;;;19.20;10.32;;;;;;;5.56;66.12;101800.28;5053052;28;20045;-62
2022/12/20 10:29:00;;;;;;;13.38;8.50;;;;;;;5.52;66.36;101794.34;5052878;28;20032;-62
2022/12/20 10:31:26;;;;;;;11.80;7.00;;;;;;;5.59;65.57;101795.72;5052652;28;20032;-65
2022/12/20 10:33:51;;;;;;;13.20;9.13;;;;;;;5.56;65.05;101787.16;5053122;28;20371;-65
2022/12/20 10:36:32;;;;;;;15.40;9.88;;;;;;;5.40;65.36;101785.31;5055202;28;20371;-65
2022/12/20 10:39:04;;;;;;;16.02;7.72;;;;;;;5.55;65.89;101769.69;5053715;28;20048;-64
2022/12/20 10:41:51;;;;;;;18.60;9.60;;;;;;;5.50;64.96;101769.06;5053946;28;20074;-70
2022/12/20 10:44:26;;;;;;;19.17;9.98;;;;;;;5.66;67.32;101762.94;5054316;28;20052;-64
2022/12/20 10:46:54;;;;;;;47.42;17.98;;;;;;;5.24;65.42;101767.78;5053686;28;20039;-64
2022/12/20 10:49:30;;;;;;;16.52;8.32;;;;;;;5.47;66.05;101754.31;5056056;28;20024;-72
2022/12/20 10:51:59;;;;;;;13.95;8.52;;;;;;;5.34;65.61;101751.47;5057161;28;20346;-72
2022/12/20 10:54:44;;;;;;;13.40;7.35;;;;;;;5.57;64.85;101749.44;5038715;28;20029;-70
2022/12/20 10:57:12;;;;;;;14.07;8.15;;;;;;;5.43;64.98;101740.50;5054186;28;20043;-70
2022/12/20 10:59:43;;;;;;;14.13;8.43;;;;;;;5.64;65.55;101741.13;5048924;28;20116;-70
2022/12/20 11:02:28;;;;;;;15.13;8.27;;;;;;;5.73;65.65;101730.13;5051860;28;20021;-70
2022/12/20 11:05:05;;;;;;;13.10;7.38;;;;;;;5.70;64.97;101730.28;5051582;28;20068;-71
2022/12/20 11:07:33;;;;;;;14.18;8.00;;;;;;;5.59;64.27;101716.03;5052327;28;20060;-71
2022/12/20 11:10:01;;;;;;;13.20;7.65;;;;;;;5.79;63.55;101718.44;5058505;22;21444;-70
2022/12/20 11:12:27;;;;;;;15.35;7.45;;;;;;;5.88;62.94;101707.41;5053484;28;20048;-70
2022/12/20 11:15:18;;;;;;;15.50;8.00;;;;;;;5.87;60.85;101708.34;5053098;28;20045;-70
2022/12/20 11:17:50;;;;;;;13.93;7.30;;;;;;;5.94;61.43;101699.22;5057703;28;20049;-70
2022/12/20 11:20:47;;;;;;;12.30;7.70;;;;;;;5.63;62.97;101697.38;5058033;28;20360;-72
2022/12/20 11:23:45;;;;;;;14.98;7.80;;;;;;;5.81;63.72;101681.56;5026945;28;20049;-71
2022/12/20 11:26:32;;;;;;;13.98;7.40;;;;;;;5.80;62.95;101675.44;5025639;28;20393;-70
2022/12/20 11:29:18;;;;;;;14.63;7.25;;;;;;;5.86;63.80;101674.25;5057845;28;20037;-70
2022/12/20 11:32:20;;;;;;;12.23;5.88;;;;;;;5.91;62.64;101675.72;5059384;28;20045;-70
2022/12/20 11:34:53;;;;;;;11.85;7.00;;;;;;;5.96;61.75;101662.31;5058512;28;20338;-72
2022/12/20 11:37:21;;;;;;;14.85;8.00;;;;;;;5.90;60.81;101657.41;5058067;28;20040;-71
2022/12/20 11:40:20;;;;;;;13.75;7.60;;;;;;;5.96;63.29;101657.06;5057425;28;20053;-69